Airfield :
LOGIN :

Register | Disclaimer

   EN    FR    IT 

 










Legend :    VFR   Marginal VFR   IFR   Intensive IFR   Very Intensive IFR
Visi :
Ceiling :
>= 8 km
>= 3000ft
5 to 8 km
1000 to 3000 ft
1500m to 5 km
500 to 1000 ft
800 to 1500m
200 to 500 ft
< 800m
< 200 ft
Symbols :   Thunderstorms  Fog  Heavy snow  Heavy precipitations  Wind > 20 kt
SIGMETs :     Misc.  Thunderstorms  Icing  Turbulence  Mountain Waves  Volcanic Ashes







- Airport Elevation : 12 ft
- IATA code : NCE
- Download approach charts


LFMN - Nice

CURRENT METAR :
  • 241830Z 08013KT 9999 BKN093 27/16 Q1017 NOSIG

EXPIRED METARs :
  • 241800Z 09011KT 9999 BKN093 27/16 Q1016 NOSIG
  • 241730Z 09011KT 9999 FEW020 BKN080 27/16 Q1016 NOSIG
  • 241700Z 07014KT 9999 FEW020 BKN080 28/14 Q1015 NOSIG
  • 241630Z 07013KT 9999 FEW020 SCT080 28/15 Q1015 NOSIG
  • 241600Z 08013KT 9999 FEW020 SCT080 28/14 Q1015 NOSIG

TAF TAF LFMN
Valid from the 24 at 15:00 until the 25 at 21:00 UTC


241400Z 2415/2521 09010KT 9999 SCT035
TEMPO 2415/2419 BKN040
TEMPO 2422/2521 09020G30KT
ATIS : +33 4 93 17 21 16
No reported NOTAMs for that airfield.
2 SIGMETs reported for the Marseille FIR (LFMM) :
 
Severe turbulence
LFMM SIGMET 12 VALID 241900/242100 LFPW
LFMM MARSEILLE FIR/UIR SEV TURB FCST WI N4330 E00415 - N4415 E00330 - N4430 E00345 - N4445 E00445 - N4330 E00500 - N4330 E00415 SFC/FL040 STNR NC=
Severe turbulence
LFMM SIGMET 11 VALID 241500/241900 LFPW
LFMM MARSEILLE FIR/UIR SEV TURB FCST WI N4515 E00515 - N4300 E00545 - N4345 E00245 - N4500 E00315 - N4515 E00515 SFC/FL040 STNR NC=



MET'MAP, your aeronautical weather chart ! - Copyright ORBIFLY December 2007 - Disclaimer

ORBIFLY MET'MAP TEAM :

Programming & Development : Alexandra Zaïnal
Concept & Development : Baudouin d'Aumeries
Co-Development & Prog : Marc-Olivier Méhu
Technical & hardware support : Manuel Goepfert

Contact : metmap@orbifly.com




SOURCES & CREDITS :

   NOAA